Monmouth, OR (97361)

1:00 PM PDT on March 29, 2017 (GMT -0700)
Monmouth | | Change Station

Elev 211 ft 44.85 °N, 123.23 °W | Updated 4 seconds ago

Overcast
Overcast
52.6 °F
Feels Like 52.6 °F
N
6.0
Wind Variable Wind from ESE

Today
High -- | Low -- °F
--% Chance of Precip.
Yesterday
High -- | Low -- °F
Precip. -- in
Pressure 30.03 in
Visibility 3.0 miles
Clouds Mostly Cloudy 1500 ft
Mostly Cloudy 3800 ft
Overcast 6000 ft
Dew Point 50 °F
Humidity 93%
Rainfall 0.27 in
Snow Depth Not available.
6:58 AM 7:37 PM
Waxing Crescent, 4% visible
METAR KSLE 291956Z COR 17010G21KT 3SM BR BKN015 BKN038 OVC060 12/09 A3002 RMK AO2 RAE08 SLP167 P0001 T01170089
Pressure 30.03 in
Visibility 3.0 miles
Clouds Mostly Cloudy 1500 ft
Mostly Cloudy 3800 ft
Overcast 6000 ft
Dew Point 50 °F
Humidity 93%
Rainfall 0.27 in
Snow Depth Not available.
6:58 AM 7:37 PM
Waxing Crescent, 4% visible
METAR KSLE 291956Z COR 17010G21KT 3SM BR BKN015 BKN038 OVC060 12/09 A3002 RMK AO2 RAE08 SLP167 P0001 T01170089

Get Severe Weather Alerts

Thanks for signing up!

Be on the lookout for a verification email in your inbox.

You'll start receiving the daily forecast at 8 AM.

×

10-Day Weather Forecast

Almanac

Astronomy

Mar. 29, 2017 Rise Set
Actual Time
Civil Twilight
Nautical Twilight
Astronomical Twilight
Moon
Length of Visible Light
Length of Day
Tomorrow will be .
, % of the Moon is Illuminated

Today's Extremes

State Highs State Lows

Community

WunderPhotos

Upload Photos

1,962,540 photos uploaded!

WunderBlog® & News

Nearby

Air Quality

  Air Quality AQ Index Pollutant
Not available.

Snow Depth

Station Depth Elevation

Earthquake Activity

City Distance Mag. Time & Date
Minimum magnitude displayed is 2.5.

Earthquake Activity

City Distance Mag. Time & Date
Minimum magnitude displayed is 2.5.

Coastal Water Temperatures

Place Temperature

Stations

Nearby Weather Stations

Station Location Temp. Windchill Dew Point Humidity Wind Precip. Elev Updated Type
                   

Watches & Warnings

There are currently no watches in effect.